sensor_id;sensor_type;location;lat;lon;timestamp;pressure;altitude;pressure_sealevel;temperature;humidity
29839;BME280;18669;53.356;-1.464;2023-05-23T00:00:25;101669.63;;;14.94;100.00
29839;BME280;18669;53.356;-1.464;2023-05-23T00:03:12;101664.59;;;14.82;100.00
29839;BME280;18669;53.356;-1.464;2023-05-23T00:05:57;101665.41;;;14.84;100.00
29839;BME280;18669;53.356;-1.464;2023-05-23T00:08:42;101662.94;;;14.76;100.00
29839;BME280;18669;53.356;-1.464;2023-05-23T00:11:27;101674.53;;;14.70;100.00
29839;BME280;18669;53.356;-1.464;2023-05-23T00:14:13;101678.97;;;14.70;100.00
29839;BME280;18669;53.356;-1.464;2023-05-23T00:16:58;101674.81;;;14.56;100.00
29839;BME280;18669;53.356;-1.464;2023-05-23T00:19:44;101669.63;;;14.50;100.00
29839;BME280;18669;53.356;-1.464;2023-05-23T00:22:29;101657.34;;;14.46;100.00
29839;BME280;18669;53.356;-1.464;2023-05-23T00:25:14;101668.78;;;14.48;100.00
29839;BME280;18669;53.356;-1.464;2023-05-23T00:27:59;101668.81;;;14.46;100.00
29839;BME280;18669;53.356;-1.464;2023-05-23T00:30:44;101665.41;;;14.41;100.00
29839;BME280;18669;53.356;-1.464;2023-05-23T00:33:29;101670.81;;;14.35;100.00
29839;BME280;18669;53.356;-1.464;2023-05-23T00:36:16;101668.81;;;14.46;100.00
29839;BME280;18669;53.356;-1.464;2023-05-23T00:39:01;101662.19;;;14.24;100.00
29839;BME280;18669;53.356;-1.464;2023-05-23T00:41:47;101676.03;;;14.38;100.00
29839;BME280;18669;53.356;-1.464;2023-05-23T00:44:32;101669.13;;;14.31;100.00
29839;BME280;18669;53.356;-1.464;2023-05-23T00:47:17;101679.59;;;14.36;100.00
29839;BME280;18669;53.356;-1.464;2023-05-23T00:50:02;101676.06;;;14.37;100.00
29839;BME280;18669;53.356;-1.464;2023-05-23T00:52:47;101655.81;;;14.34;100.00
29839;BME280;18669;53.356;-1.464;2023-05-23T00:55:33;101661.91;;;14.38;100.00
29839;BME280;18669;53.356;-1.464;2023-05-23T00:58:18;101655.81;;;14.34;100.00
29839;BME280;18669;53.356;-1.464;2023-05-23T01:01:03;101664.66;;;14.33;100.00
29839;BME280;18669;53.356;-1.464;2023-05-23T01:03:47;101654.94;;;14.33;100.00
29839;BME280;18669;53.356;-1.464;2023-05-23T01:06:33;101660.22;;;14.33;100.00
29839;BME280;18669;53.356;-1.464;2023-05-23T01:09:19;101662.75;;;14.41;100.00
29839;BME280;18669;53.356;-1.464;2023-05-23T01:14:58;101659.88;;;14.52;100.00
29839;BME280;18669;53.356;-1.464;2023-05-23T01:18:15;101659.00;;;14.52;100.00
29839;BME280;18669;53.356;-1.464;2023-05-23T01:21:16;101674.09;;;14.48;100.00
29839;BME280;18669;53.356;-1.464;2023-05-23T01:28:15;101669.56;;;14.53;100.00
29839;BME280;18669;53.356;-1.464;2023-05-23T01:30:41;101668.91;;;14.42;100.00
29839;BME280;18669;53.356;-1.464;2023-05-23T01:33:28;101669.81;;;14.41;100.00
29839;BME280;18669;53.356;-1.464;2023-05-23T01:36:15;101671.72;;;14.32;100.00
29839;BME280;18669;53.356;-1.464;2023-05-23T01:39:01;101675.19;;;14.36;100.00
29839;BME280;18669;53.356;-1.464;2023-05-23T01:41:46;101685.06;;;14.28;100.00
29839;BME280;18669;53.356;-1.464;2023-05-23T01:44:33;101682.19;;;14.40;100.00
29839;BME280;18669;53.356;-1.464;2023-05-23T01:47:19;101678.53;;;14.47;100.00
29839;BME280;18669;53.356;-1.464;2023-05-23T01:50:05;101683.78;;;14.49;100.00
29839;BME280;18669;53.356;-1.464;2023-05-23T01:52:51;101678.53;;;14.46;100.00
29839;BME280;18669;53.356;-1.464;2023-05-23T01:55:38;101677.47;;;14.55;100.00
29839;BME280;18669;53.356;-1.464;2023-05-23T01:58:24;101666.31;;;14.40;100.00
29839;BME280;18669;53.356;-1.464;2023-05-23T02:01:09;101686.47;;;14.46;100.00
29839;BME280;18669;53.356;-1.464;2023-05-23T02:03:54;101669.78;;;14.42;100.00
29839;BME280;18669;53.356;-1.464;2023-05-23T02:06:39;101685.63;;;14.45;100.00
29839;BME280;18669;53.356;-1.464;2023-05-23T02:09:25;101670.94;;;14.29;100.00
29839;BME280;18669;53.356;-1.464;2023-05-23T02:12:10;101686.59;;;14.41;100.00
29839;BME280;18669;53.356;-1.464;2023-05-23T02:14:55;101683.03;;;14.41;100.00
29839;BME280;18669;53.356;-1.464;2023-05-23T02:17:40;101689.19;;;14.43;100.00
29839;BME280;18669;53.356;-1.464;2023-05-23T02:20:26;101692.66;;;14.45;100.00
29839;BME280;18669;53.356;-1.464;2023-05-23T02:23:10;101689.13;;;14.46;100.00
29839;BME280;18669;53.356;-1.464;2023-05-23T02:25:56;101686.63;;;14.38;100.00
29839;BME280;18669;53.356;-1.464;2023-05-23T02:28:41;101692.72;;;14.43;100.00
29839;BME280;18669;53.356;-1.464;2023-05-23T02:31:25;101690.25;;;14.32;100.00
29839;BME280;18669;53.356;-1.464;2023-05-23T02:34:11;101685.03;;;14.29;100.00
29839;BME280;18669;53.356;-1.464;2023-05-23T02:36:56;101681.50;;;14.29;100.00
29839;BME280;18669;53.356;-1.464;2023-05-23T02:39:44;101687.44;;;14.42;100.00
29839;BME280;18669;53.356;-1.464;2023-05-23T02:42:29;101687.56;;;14.36;100.00
29839;BME280;18669;53.356;-1.464;2023-05-23T02:45:14;101687.66;;;14.31;100.00
29839;BME280;18669;53.356;-1.464;2023-05-23T02:47:59;101695.53;;;14.32;100.00
29839;BME280;18669;53.356;-1.464;2023-05-23T02:50:44;101699.09;;;14.31;100.00
29839;BME280;18669;53.356;-1.464;2023-05-23T02:53:28;101697.34;;;14.30;100.00
29839;BME280;18669;53.356;-1.464;2023-05-23T02:56:13;101692.09;;;14.29;100.00
29839;BME280;18669;53.356;-1.464;2023-05-23T02:58:59;101686.84;;;14.27;100.00
29839;BME280;18669;53.356;-1.464;2023-05-23T03:01:44;101675.53;;;14.19;100.00
29839;BME280;18669;53.356;-1.464;2023-05-23T03:04:29;101688.78;;;14.17;100.00
29839;BME280;18669;53.356;-1.464;2023-05-23T03:07:14;101689.72;;;14.13;100.00
29839;BME280;18669;53.356;-1.464;2023-05-23T03:10:00;101695.97;;;14.11;100.00
29839;BME280;18669;53.356;-1.464;2023-05-23T03:12:45;101686.28;;;14.10;100.00
29839;BME280;18669;53.356;-1.464;2023-05-23T03:15:30;101694.28;;;14.07;100.00
29839;BME280;18669;53.356;-1.464;2023-05-23T03:18:15;101694.31;;;14.05;100.00
29839;BME280;18669;53.356;-1.464;2023-05-23T03:21:00;101682.97;;;13.97;100.00
29839;BME280;18669;53.356;-1.464;2023-05-23T03:23:45;101691.97;;;13.86;100.00
29839;BME280;18669;53.356;-1.464;2023-05-23T03:26:29;101680.72;;;13.73;100.00
29839;BME280;18669;53.356;-1.464;2023-05-23T03:29:14;101708.03;;;13.77;100.00
29839;BME280;18669;53.356;-1.464;2023-05-23T03:31:59;101699.25;;;13.73;100.00
29839;BME280;18669;53.356;-1.464;2023-05-23T03:34:44;101703.69;;;13.73;100.00
29839;BME280;18669;53.356;-1.464;2023-05-23T03:37:29;101711.72;;;13.65;100.00
29839;BME280;18669;53.356;-1.464;2023-05-23T03:40:14;101713.56;;;13.62;100.00
29839;BME280;18669;53.356;-1.464;2023-05-23T03:43:03;101714.34;;;13.67;100.00
29839;BME280;18669;53.356;-1.464;2023-05-23T03:45:48;101714.66;;;13.45;100.00
29839;BME280;18669;53.356;-1.464;2023-05-23T03:48:33;101710.31;;;13.39;100.00
29839;BME280;18669;53.356;-1.464;2023-05-23T03:51:18;101709.50;;;13.34;100.00
29839;BME280;18669;53.356;-1.464;2023-05-23T03:54:03;101719.28;;;13.31;100.00
29839;BME280;18669;53.356;-1.464;2023-05-23T03:56:48;101700.81;;;13.26;100.00
29839;BME280;18669;53.356;-1.464;2023-05-23T03:59:33;101707.06;;;13.20;100.00
29839;BME280;18669;53.356;-1.464;2023-05-23T04:02:18;101711.50;;;13.18;100.00
29839;BME280;18669;53.356;-1.464;2023-05-23T04:05:03;101714.22;;;13.13;100.00
29839;BME280;18669;53.356;-1.464;2023-05-23T04:07:48;101708.09;;;13.11;100.00
29839;BME280;18669;53.356;-1.464;2023-05-23T04:10:33;101710.78;;;13.07;100.00
29839;BME280;18669;53.356;-1.464;2023-05-23T04:13:18;101709.94;;;13.03;100.00
29839;BME280;18669;53.356;-1.464;2023-05-23T04:16:04;101712.53;;;13.09;100.00
29839;BME280;18669;53.356;-1.464;2023-05-23T04:18:49;101701.19;;;13.03;100.00
29839;BME280;18669;53.356;-1.464;2023-05-23T04:21:34;101715.16;;;13.08;100.00
29839;BME280;18669;53.356;-1.464;2023-05-23T04:24:18;101717.81;;;13.08;100.00
29839;BME280;18669;53.356;-1.464;2023-05-23T04:27:03;101708.13;;;13.08;100.00
29839;BME280;18669;53.356;-1.464;2023-05-23T04:29:49;101713.41;;;13.07;100.00
29839;BME280;18669;53.356;-1.464;2023-05-23T04:32:34;101718.69;;;13.08;100.00
29839;BME280;18669;53.356;-1.464;2023-05-23T04:35:18;101716.06;;;13.08;100.00
29839;BME280;18669;53.356;-1.464;2023-05-23T04:38:04;101717.72;;;13.16;100.00
29839;BME280;18669;53.356;-1.464;2023-05-23T04:40:49;101723.88;;;13.16;100.00
29839;BME280;18669;53.356;-1.464;2023-05-23T04:43:34;101721.06;;;13.27;100.00
29839;BME280;18669;53.356;-1.464;2023-05-23T04:46:21;101721.88;;;13.34;100.00
29839;BME280;18669;53.356;-1.464;2023-05-23T04:49:10;101721.97;;;13.27;100.00
29839;BME280;18669;53.356;-1.464;2023-05-23T04:51:56;101704.56;;;13.12;100.00
29839;BME280;18669;53.356;-1.464;2023-05-23T04:54:41;101711.47;;;13.21;100.00
29839;BME280;18669;53.356;-1.464;2023-05-23T04:57:28;101724.69;;;13.23;100.00
29839;BME280;18669;53.356;-1.464;2023-05-23T05:00:13;101724.59;;;13.27;100.00
29839;BME280;18669;53.356;-1.464;2023-05-23T05:02:58;101730.78;;;13.26;100.00
29839;BME280;18669;53.356;-1.464;2023-05-23T05:05:43;101720.16;;;13.28;100.00
29839;BME280;18669;53.356;-1.464;2023-05-23T05:08:28;101723.66;;;13.32;100.00
29839;BME280;18669;53.356;-1.464;2023-05-23T05:11:13;101721.84;;;13.37;100.00
29839;BME280;18669;53.356;-1.464;2023-05-23T05:13:58;101724.47;;;13.37;100.00
29839;BME280;18669;53.356;-1.464;2023-05-23T05:16:42;101715.56;;;13.44;100.00
29839;BME280;18669;53.356;-1.464;2023-05-23T05:19:29;101727.00;;;13.46;100.00
29839;BME280;18669;53.356;-1.464;2023-05-23T05:22:14;101718.16;;;13.47;100.00
29839;BME280;18669;53.356;-1.464;2023-05-23T05:24:58;101728.59;;;13.56;100.00
29839;BME280;18669;53.356;-1.464;2023-05-23T05:27:43;101736.44;;;13.63;100.00
29839;BME280;18669;53.356;-1.464;2023-05-23T05:30:28;101731.97;;;13.68;100.00
29839;BME280;18669;53.356;-1.464;2023-05-23T05:33:13;101732.78;;;13.73;100.00
29839;BME280;18669;53.356;-1.464;2023-05-23T05:35:58;101732.66;;;13.79;100.00
29839;BME280;18669;53.356;-1.464;2023-05-23T05:38:43;101718.56;;;13.79;100.00
29839;BME280;18669;53.356;-1.464;2023-05-23T05:41:28;101726.41;;;13.83;100.00
29839;BME280;18669;53.356;-1.464;2023-05-23T05:44:13;101725.56;;;13.83;100.00
29839;BME280;18669;53.356;-1.464;2023-05-23T05:46:58;101727.47;;;13.73;100.00
29839;BME280;18669;53.356;-1.464;2023-05-23T05:49:42;101720.31;;;13.78;100.00
29839;BME280;18669;53.356;-1.464;2023-05-23T05:52:27;101708.75;;;13.87;100.00
29839;BME280;18669;53.356;-1.464;2023-05-23T05:55:12;101710.34;;;13.96;100.00
29839;BME280;18669;53.356;-1.464;2023-05-23T05:57:57;101713.75;;;14.02;100.00
29839;BME280;18669;53.356;-1.464;2023-05-23T06:00:42;101706.59;;;14.08;100.00
29839;BME280;18669;53.356;-1.464;2023-05-23T06:03:27;101713.59;;;14.12;100.00
29839;BME280;18669;53.356;-1.464;2023-05-23T06:06:12;101724.38;;;13.99;100.00
29839;BME280;18669;53.356;-1.464;2023-05-23T06:08:57;101716.44;;;14.01;100.00
29839;BME280;18669;53.356;-1.464;2023-05-23T06:11:42;101711.94;;;14.06;100.00
29839;BME280;18669;53.356;-1.464;2023-05-23T06:14:27;101712.53;;;14.21;100.00
29839;BME280;18669;53.356;-1.464;2023-05-23T06:17:12;101720.31;;;14.30;100.00
29839;BME280;18669;53.356;-1.464;2023-05-23T06:19:57;101714.91;;;14.36;100.00
29839;BME280;18669;53.356;-1.464;2023-05-23T06:22:41;101720.88;;;14.47;100.00
29839;BME280;18669;53.356;-1.464;2023-05-23T06:25:28;101718.09;;;14.54;100.00
29839;BME280;18669;53.356;-1.464;2023-05-23T06:28:13;101723.38;;;14.54;100.00
29839;BME280;18669;53.356;-1.464;2023-05-23T06:30:57;101724.94;;;14.66;100.00
29839;BME280;18669;53.356;-1.464;2023-05-23T06:33:42;101719.72;;;14.62;100.00
29839;BME280;18669;53.356;-1.464;2023-05-23T06:36:27;101735.47;;;14.69;99.04
29839;BME280;18669;53.356;-1.464;2023-05-23T06:39:13;101732.09;;;14.60;97.51
29839;BME280;18669;53.356;-1.464;2023-05-23T06:41:57;101723.84;;;14.77;100.00
29839;BME280;18669;53.356;-1.464;2023-05-23T06:44:42;101718.66;;;14.71;93.28
29839;BME280;18669;53.356;-1.464;2023-05-23T06:47:27;101720.97;;;14.88;95.31
29839;BME280;18669;53.356;-1.464;2023-05-23T06:50:12;101719.97;;;14.94;95.94
29839;BME280;18669;53.356;-1.464;2023-05-23T06:52:57;101704.00;;;14.97;94.45
29839;BME280;18669;53.356;-1.464;2023-05-23T06:55:42;101722.72;;;14.88;91.87
29839;BME280;18669;53.356;-1.464;2023-05-23T06:58:27;101719.47;;;14.76;88.25
29839;BME280;18669;53.356;-1.464;2023-05-23T07:01:12;101723.16;;;14.66;88.50
29839;BME280;18669;53.356;-1.464;2023-05-23T07:03:57;101725.00;;;15.05;87.61
29839;BME280;18669;53.356;-1.464;2023-05-23T07:06:42;101715.66;;;15.29;78.86
29839;BME280;18669;53.356;-1.464;2023-05-23T07:09:27;101716.91;;;15.52;76.01
29839;BME280;18669;53.356;-1.464;2023-05-23T07:12:12;101714.78;;;15.66;73.35
29839;BME280;18669;53.356;-1.464;2023-05-23T07:14:57;101721.56;;;15.78;71.73
29839;BME280;18669;53.356;-1.464;2023-05-23T07:17:42;101728.47;;;15.86;71.26
29839;BME280;18669;53.356;-1.464;2023-05-23T07:20:28;101722.72;;;16.04;72.99
29839;BME280;18669;53.356;-1.464;2023-05-23T07:23:13;101711.53;;;15.91;66.68
29839;BME280;18669;53.356;-1.464;2023-05-23T07:25:57;101733.91;;;15.81;65.05
29839;BME280;18669;53.356;-1.464;2023-05-23T07:28:42;101735.63;;;15.82;61.77
29839;BME280;18669;53.356;-1.464;2023-05-23T07:31:27;101741.25;;;16.06;62.83
29839;BME280;18669;53.356;-1.464;2023-05-23T07:34:12;101746.09;;;16.24;62.14
29839;BME280;18669;53.356;-1.464;2023-05-23T07:36:57;101743.34;;;16.28;54.32
29839;BME280;18669;53.356;-1.464;2023-05-23T07:39:42;101744.63;;;16.46;57.57
29839;BME280;18669;53.356;-1.464;2023-05-23T07:42:27;101744.38;;;16.55;59.25
29839;BME280;18669;53.356;-1.464;2023-05-23T07:45:12;101750.22;;;16.68;59.50
29839;BME280;18669;53.356;-1.464;2023-05-23T07:47:57;101754.53;;;16.40;58.76
29839;BME280;18669;53.356;-1.464;2023-05-23T07:50:42;101753.69;;;16.72;59.11
29839;BME280;18669;53.356;-1.464;2023-05-23T07:53:27;101753.28;;;16.85;58.56
29839;BME280;18669;53.356;-1.464;2023-05-23T07:56:12;101744.59;;;17.10;58.02
29839;BME280;18669;53.356;-1.464;2023-05-23T07:58:57;101746.28;;;17.13;57.08
29839;BME280;18669;53.356;-1.464;2023-05-23T08:01:41;101749.38;;;17.29;57.38
29839;BME280;18669;53.356;-1.464;2023-05-23T08:04:28;101740.84;;;17.46;56.43
29839;BME280;18669;53.356;-1.464;2023-05-23T08:07:13;101736.88;;;17.59;54.88
29839;BME280;18669;53.356;-1.464;2023-05-23T08:09:58;101733.34;;;17.86;54.24
29839;BME280;18669;53.356;-1.464;2023-05-23T08:12:43;101726.47;;;18.07;53.69
29839;BME280;18669;53.356;-1.464;2023-05-23T08:15:28;101726.84;;;18.22;52.40
29839;BME280;18669;53.356;-1.464;2023-05-23T08:18:13;101720.84;;;18.15;49.24
29839;BME280;18669;53.356;-1.464;2023-05-23T08:20:58;101727.66;;;17.70;50.16
29839;BME280;18669;53.356;-1.464;2023-05-23T08:23:43;101734.00;;;17.66;50.68
29839;BME280;18669;53.356;-1.464;2023-05-23T08:26:30;101730.88;;;17.53;52.80
29839;BME280;18669;53.356;-1.464;2023-05-23T08:29:18;101726.50;;;17.79;54.72
29839;BME280;18669;53.356;-1.464;2023-05-23T08:32:03;101724.06;;;18.25;52.82
29839;BME280;18669;53.356;-1.464;2023-05-23T08:34:47;101722.50;;;18.19;50.51
29839;BME280;18669;53.356;-1.464;2023-05-23T08:37:33;101734.28;;;18.12;49.86
29839;BME280;18669;53.356;-1.464;2023-05-23T08:40:19;101734.69;;;18.26;50.31
29839;BME280;18669;53.356;-1.464;2023-05-23T08:43:04;101723.47;;;18.42;48.94
29839;BME280;18669;53.356;-1.464;2023-05-23T08:45:50;101720.91;;;18.39;48.17
29839;BME280;18669;53.356;-1.464;2023-05-23T08:48:37;101724.31;;;18.18;48.36
29839;BME280;18669;53.356;-1.464;2023-05-23T08:51:24;101724.72;;;18.31;49.10
29839;BME280;18669;53.356;-1.464;2023-05-23T08:54:10;101717.41;;;18.62;49.80
29839;BME280;18669;53.356;-1.464;2023-05-23T08:56:58;101714.69;;;18.87;48.62
29839;BME280;18669;53.356;-1.464;2023-05-23T08:59:43;101716.53;;;19.09;47.56
29839;BME280;18669;53.356;-1.464;2023-05-23T09:02:31;101724.72;;;19.04;47.94
29839;BME280;18669;53.356;-1.464;2023-05-23T09:05:17;101729.13;;;19.05;46.72
29839;BME280;18669;53.356;-1.464;2023-05-23T09:08:02;101725.06;;;18.95;46.61
29839;BME280;18669;53.356;-1.464;2023-05-23T09:10:48;101725.88;;;18.97;46.94
29839;BME280;18669;53.356;-1.464;2023-05-23T09:13:35;101728.13;;;18.84;46.84
29839;BME280;18669;53.356;-1.464;2023-05-23T09:16:20;101713.72;;;19.14;45.16
29839;BME280;18669;53.356;-1.464;2023-05-23T09:19:09;101711.19;;;19.33;46.13
29839;BME280;18669;53.356;-1.464;2023-05-23T09:21:55;101720.72;;;19.61;47.04
29839;BME280;18669;53.356;-1.464;2023-05-23T09:24:40;101723.16;;;19.88;47.10
29839;BME280;18669;53.356;-1.464;2023-05-23T09:27:26;101713.31;;;19.90;43.97
29839;BME280;18669;53.356;-1.464;2023-05-23T09:30:12;101719.59;;;19.89;45.73
29839;BME280;18669;53.356;-1.464;2023-05-23T09:32:58;101709.66;;;19.70;45.17
29839;BME280;18669;53.356;-1.464;2023-05-23T09:35:44;101709.03;;;19.63;44.39
29839;BME280;18669;53.356;-1.464;2023-05-23T09:38:30;101721.03;;;19.75;44.58
29839;BME280;18669;53.356;-1.464;2023-05-23T09:41:19;101713.53;;;19.83;43.27
29839;BME280;18669;53.356;-1.464;2023-05-23T09:44:06;101715.78;;;20.36;43.79
29839;BME280;18669;53.356;-1.464;2023-05-23T09:46:51;101713.16;;;19.94;41.53
29839;BME280;18669;53.356;-1.464;2023-05-23T09:49:42;101706.38;;;20.48;43.16
29839;BME280;18669;53.356;-1.464;2023-05-23T09:52:36;101698.84;;;20.96;41.67
29839;BME280;18669;53.356;-1.464;2023-05-23T09:55:22;101699.09;;;21.28;41.11
29839;BME280;18669;53.356;-1.464;2023-05-23T09:58:07;101701.97;;;21.79;40.73
29839;BME280;18669;53.356;-1.464;2023-05-23T10:00:52;101701.09;;;21.59;38.88
29839;BME280;18669;53.356;-1.464;2023-05-23T10:03:50;101697.94;;;22.39;38.44
29839;BME280;18669;53.356;-1.464;2023-05-23T10:06:47;101699.19;;;22.83;37.60
29839;BME280;18669;53.356;-1.464;2023-05-23T10:09:37;101697.06;;;23.22;36.90
29839;BME280;18669;53.356;-1.464;2023-05-23T10:12:46;101680.34;;;23.33;35.35
29839;BME280;18669;53.356;-1.464;2023-05-23T10:15:37;101683.13;;;23.92;36.13
29839;BME280;18669;53.356;-1.464;2023-05-23T10:18:26;101680.59;;;25.74;35.25
29839;BME280;18669;53.356;-1.464;2023-05-23T10:21:18;101680.47;;;26.66;32.39
29839;BME280;18669;53.356;-1.464;2023-05-23T10:24:07;101673.38;;;27.87;30.38
29839;BME280;18669;53.356;-1.464;2023-05-23T10:26:53;101674.81;;;27.68;30.10
29839;BME280;18669;53.356;-1.464;2023-05-23T10:29:39;101661.88;;;28.08;30.27
29839;BME280;18669;53.356;-1.464;2023-05-23T10:32:25;101663.94;;;28.04;29.50
29839;BME280;18669;53.356;-1.464;2023-05-23T10:39:03;101673.25;;;29.68;28.69
29839;BME280;18669;53.356;-1.464;2023-05-23T10:41:52;101663.09;;;30.64;28.68
29839;BME280;18669;53.356;-1.464;2023-05-23T10:44:39;101661.44;;;30.93;26.93
29839;BME280;18669;53.356;-1.464;2023-05-23T10:47:25;101649.16;;;30.99;26.73
29839;BME280;18669;53.356;-1.464;2023-05-23T10:50:13;101650.44;;;29.49;26.86
29839;BME280;18669;53.356;-1.464;2023-05-23T10:53:03;101645.16;;;29.15;29.18
29839;BME280;18669;53.356;-1.464;2023-05-23T10:55:48;101634.53;;;29.23;28.44
29839;BME280;18669;53.356;-1.464;2023-05-23T10:58:34;101633.53;;;29.99;28.23
29839;BME280;18669;53.356;-1.464;2023-05-23T11:01:20;101626.63;;;29.95;28.65
29839;BME280;18669;53.356;-1.464;2023-05-23T11:04:04;101634.78;;;29.74;27.30
29839;BME280;18669;53.356;-1.464;2023-05-23T11:06:53;101634.94;;;30.25;26.71
29839;BME280;18669;53.356;-1.464;2023-05-23T11:10:10;101625.56;;;31.48;26.94
29839;BME280;18669;53.356;-1.464;2023-05-23T11:13:05;101634.03;;;31.16;26.49
29839;BME280;18669;53.356;-1.464;2023-05-23T11:15:52;101634.13;;;29.60;27.21
29839;BME280;18669;53.356;-1.464;2023-05-23T11:18:40;101637.13;;;28.81;28.44
29839;BME280;18669;53.356;-1.464;2023-05-23T11:21:28;101630.97;;;28.90;28.32
29839;BME280;18669;53.356;-1.464;2023-05-23T11:24:13;101629.00;;;28.81;28.51
29839;BME280;18669;53.356;-1.464;2023-05-23T11:26:59;101627.88;;;29.27;29.70
29839;BME280;18669;53.356;-1.464;2023-05-23T11:29:56;101626.06;;;29.70;27.19
29839;BME280;18669;53.356;-1.464;2023-05-23T11:32:42;101636.28;;;28.46;28.64
29839;BME280;18669;53.356;-1.464;2023-05-23T11:35:26;101633.03;;;26.75;30.86
29839;BME280;18669;53.356;-1.464;2023-05-23T11:38:16;101626.38;;;27.05;30.72
29839;BME280;18669;53.356;-1.464;2023-05-23T11:41:02;101637.38;;;26.15;32.36
29839;BME280;18669;53.356;-1.464;2023-05-23T11:43:50;101628.31;;;25.09;34.27
29839;BME280;18669;53.356;-1.464;2023-05-23T11:46:35;101635.06;;;24.31;35.22
29839;BME280;18669;53.356;-1.464;2023-05-23T11:49:20;101642.53;;;23.66;37.23
29839;BME280;18669;53.356;-1.464;2023-05-23T11:52:05;101637.56;;;22.98;38.05
29839;BME280;18669;53.356;-1.464;2023-05-23T11:54:51;101636.19;;;22.25;39.52
29839;BME280;18669;53.356;-1.464;2023-05-23T11:57:39;101642.00;;;21.99;40.97
29839;BME280;18669;53.356;-1.464;2023-05-23T12:00:24;101630.16;;;21.51;42.01
29839;BME280;18669;53.356;-1.464;2023-05-23T12:03:09;101636.69;;;21.08;44.21
29839;BME280;18669;53.356;-1.464;2023-05-23T12:05:55;101640.00;;;20.96;45.46
29839;BME280;18669;53.356;-1.464;2023-05-23T12:08:39;101633.84;;;20.75;46.15
29839;BME280;18669;53.356;-1.464;2023-05-23T12:11:24;101632.16;;;20.72;46.50
29839;BME280;18669;53.356;-1.464;2023-05-23T12:14:15;101637.53;;;20.91;47.85
29839;BME280;18669;53.356;-1.464;2023-05-23T12:17:00;101625.69;;;21.14;46.21
29839;BME280;18669;53.356;-1.464;2023-05-23T12:19:45;101625.09;;;22.97;42.76
29839;BME280;18669;53.356;-1.464;2023-05-23T12:22:30;101615.19;;;24.48;39.20
29839;BME280;18669;53.356;-1.464;2023-05-23T12:25:16;101613.19;;;26.26;36.63
29839;BME280;18669;53.356;-1.464;2023-05-23T12:28:00;101612.53;;;28.04;33.37
29839;BME280;18669;53.356;-1.464;2023-05-23T12:30:47;101600.34;;;29.11;31.49
29839;BME280;18669;53.356;-1.464;2023-05-23T12:33:37;101602.81;;;28.58;31.56
29839;BME280;18669;53.356;-1.464;2023-05-23T12:36:23;101598.72;;;27.62;32.90
29839;BME280;18669;53.356;-1.464;2023-05-23T12:39:09;101598.38;;;26.45;34.17
29839;BME280;18669;53.356;-1.464;2023-05-23T12:42:06;101608.41;;;24.84;36.20
29839;BME280;18669;53.356;-1.464;2023-05-23T12:44:52;101603.25;;;24.67;38.61
29839;BME280;18669;53.356;-1.464;2023-05-23T12:47:37;101601.47;;;24.24;37.33
29839;BME280;18669;53.356;-1.464;2023-05-23T12:50:22;101592.00;;;23.73;38.68
29839;BME280;18669;53.356;-1.464;2023-05-23T12:53:07;101600.44;;;23.67;38.96
29839;BME280;18669;53.356;-1.464;2023-05-23T12:55:52;101590.34;;;23.56;39.38
29839;BME280;18669;53.356;-1.464;2023-05-23T12:58:37;101602.50;;;24.50;38.05
29839;BME280;18669;53.356;-1.464;2023-05-23T13:01:22;101575.81;;;26.70;35.53
29839;BME280;18669;53.356;-1.464;2023-05-23T13:04:07;101581.56;;;28.08;32.78
29839;BME280;18669;53.356;-1.464;2023-05-23T13:06:51;101568.25;;;30.32;29.96
29839;BME280;18669;53.356;-1.464;2023-05-23T13:09:36;101573.88;;;30.09;30.07
29839;BME280;18669;53.356;-1.464;2023-05-23T13:12:22;101580.81;;;28.29;31.70
29839;BME280;18669;53.356;-1.464;2023-05-23T13:15:07;101579.44;;;26.95;34.40
29839;BME280;18669;53.356;-1.464;2023-05-23T13:17:51;101578.88;;;25.64;35.38
29839;BME280;18669;53.356;-1.464;2023-05-23T13:20:36;101593.16;;;24.56;37.01
29839;BME280;18669;53.356;-1.464;2023-05-23T13:23:21;101584.22;;;23.68;37.71
29839;BME280;18669;53.356;-1.464;2023-05-23T13:26:06;101582.66;;;23.03;39.04
29839;BME280;18669;53.356;-1.464;2023-05-23T13:28:51;101582.69;;;22.71;40.44
29839;BME280;18669;53.356;-1.464;2023-05-23T13:31:36;101587.06;;;22.58;42.88
29839;BME280;18669;53.356;-1.464;2023-05-23T13:34:21;101569.81;;;22.46;42.03
29839;BME280;18669;53.356;-1.464;2023-05-23T13:37:06;101575.41;;;22.41;43.12
29839;BME280;18669;53.356;-1.464;2023-05-23T13:39:51;101576.97;;;22.29;43.45
29839;BME280;18669;53.356;-1.464;2023-05-23T13:42:36;101568.91;;;22.13;45.85
29839;BME280;18669;53.356;-1.464;2023-05-23T13:45:21;101573.72;;;22.07;45.82
29839;BME280;18669;53.356;-1.464;2023-05-23T13:48:06;101570.28;;;21.87;43.59
29839;BME280;18669;53.356;-1.464;2023-05-23T13:50:51;101571.19;;;21.70;47.63
29839;BME280;18669;53.356;-1.464;2023-05-23T13:53:36;101583.47;;;21.39;49.81
29839;BME280;18669;53.356;-1.464;2023-05-23T13:56:21;101570.75;;;20.90;44.92
29839;BME280;18669;53.356;-1.464;2023-05-23T13:59:07;101560.34;;;20.83;45.18
29839;BME280;18669;53.356;-1.464;2023-05-23T14:01:53;101569.03;;;21.06;45.23
29839;BME280;18669;53.356;-1.464;2023-05-23T14:04:38;101566.50;;;21.91;45.14
29839;BME280;18669;53.356;-1.464;2023-05-23T14:07:23;101564.41;;;24.71;40.55
29839;BME280;18669;53.356;-1.464;2023-05-23T14:10:08;101552.00;;;27.48;35.84
29839;BME280;18669;53.356;-1.464;2023-05-23T14:12:53;101553.69;;;29.71;32.66
29839;BME280;18669;53.356;-1.464;2023-05-23T14:15:39;101547.91;;;31.26;30.77
29839;BME280;18669;53.356;-1.464;2023-05-23T14:18:25;101559.16;;;29.81;32.37
29839;BME280;18669;53.356;-1.464;2023-05-23T14:21:10;101554.03;;;27.33;35.30